BXS1836 OEJN-HEGN
Flight info
| Callsign | BXS1836 |
|---|---|
| Flight time | N/A |
| Altitude | 34000 |
| Route | MIGDA3V/34R MIGDA DCT ALPOV DCT MOGAP DCT SOBEL DCT GN200 DCT GN204 DCT GN205 |
| Aircraft | A321/M-SDE3FGHIRWY/LB1 |
Departure
| Time | N/A |
|---|---|
| Airport | King Abdulaziz International Airport (OEJN) |
Arrival
| Time | 2026-05-06 22:44 |
|---|---|
| Airport | Hurghada International Airport (HEGN) |
| Time | Latitude | Longitude | Altitude | Speed | Heading |
|---|---|---|---|---|---|
| 2026-05-06 21:37 | 22.12163 | 39.15696 | 10742 ft | 354 kts | 297° |
| 2026-05-06 21:37 | 22.13403 | 39.13376 | 11211 ft | 359 kts | 297° |
| 2026-05-06 21:37 | 22.14656 | 39.11037 | 11742 ft | 362 kts | 297° |
| 2026-05-06 21:38 | 22.15921 | 39.08675 | 12284 ft | 365 kts | 297° |
| 2026-05-06 21:38 | 22.17195 | 39.06296 | 12814 ft | 368 kts | 297° |
| 2026-05-06 21:38 | 22.18478 | 39.03893 | 13014 ft | 370 kts | 297° |
| 2026-05-06 21:38 | 22.19760 | 39.01490 | 13047 ft | 369 kts | 297° |
| 2026-05-06 21:39 | 22.21041 | 38.99089 | 13048 ft | 369 kts | 297° |
| 2026-05-06 21:39 | 22.22323 | 38.96688 | 13048 ft | 369 kts | 297° |
| 2026-05-06 21:39 | 22.23607 | 38.94290 | 13048 ft | 369 kts | 297° |
| 2026-05-06 21:39 | 22.25010 | 38.91963 | 13051 ft | 372 kts | 306° |
| 2026-05-06 21:40 | 22.26830 | 38.89964 | 13053 ft | 376 kts | 318° |
| 2026-05-06 21:40 | 22.29039 | 38.88407 | 13497 ft | 383 kts | 330° |
| 2026-05-06 21:40 | 22.31478 | 38.87210 | 14043 ft | 387 kts | 333° |
| 2026-05-06 21:40 | 22.33946 | 38.86026 | 14576 ft | 389 kts | 333° |
| 2026-05-06 21:41 | 22.36422 | 38.84833 | 15121 ft | 391 kts | 333° |
| 2026-05-06 21:41 | 22.38908 | 38.83633 | 15669 ft | 392 kts | 333° |
| 2026-05-06 21:41 | 22.41406 | 38.82428 | 16193 ft | 394 kts | 333° |
| 2026-05-06 21:41 | 22.43910 | 38.81220 | 16718 ft | 396 kts | 333° |
| 2026-05-06 21:42 | 22.46437 | 38.80004 | 17243 ft | 398 kts | 333° |
| 2026-05-06 21:42 | 22.48965 | 38.78788 | 17754 ft | 399 kts | 333° |
| 2026-05-06 21:42 | 22.51509 | 38.77563 | 18250 ft | 401 kts | 333° |
| 2026-05-06 21:42 | 22.53202 | 38.76747 | 18537 ft | 402 kts | 333° |
| 2026-05-06 21:43 | 22.56599 | 38.75110 | 19101 ft | 405 kts | 333° |
| 2026-05-06 21:43 | 22.59177 | 38.73870 | 19520 ft | 406 kts | 332° |
| 2026-05-06 21:43 | 22.61739 | 38.72574 | 19927 ft | 406 kts | 327° |
| 2026-05-06 21:43 | 22.64059 | 38.70876 | 20318 ft | 402 kts | 316° |
| 2026-05-06 21:44 | 22.65440 | 38.69487 | 20595 ft | 400 kts | 309° |
| 2026-05-06 21:44 | 22.67198 | 38.67165 | 21002 ft | 399 kts | 303° |
| 2026-05-06 21:44 | 22.68884 | 38.64774 | 21418 ft | 400 kts | 303° |
| 2026-05-06 21:44 | 22.70579 | 38.62376 | 21839 ft | 401 kts | 303° |
| 2026-05-06 21:45 | 22.72258 | 38.60004 | 22245 ft | 403 kts | 303° |
| 2026-05-06 21:45 | 22.73989 | 38.57561 | 22649 ft | 405 kts | 303° |
| 2026-05-06 21:45 | 22.75683 | 38.55168 | 23030 ft | 406 kts | 303° |
| 2026-05-06 21:45 | 22.77406 | 38.52734 | 23410 ft | 408 kts | 303° |
| 2026-05-06 21:46 | 22.79136 | 38.50285 | 23737 ft | 410 kts | 303° |
| 2026-05-06 21:46 | 22.80866 | 38.47829 | 24051 ft | 411 kts | 303° |
| 2026-05-06 21:46 | 22.82607 | 38.45359 | 24364 ft | 413 kts | 303° |
| 2026-05-06 21:46 | 22.84355 | 38.42878 | 24680 ft | 415 kts | 303° |
| 2026-05-06 21:47 | 22.86109 | 38.40387 | 24995 ft | 416 kts | 302° |
| 2026-05-06 21:47 | 22.87866 | 38.37893 | 25313 ft | 418 kts | 302° |
| 2026-05-06 21:47 | 22.89633 | 38.35384 | 25612 ft | 419 kts | 302° |
| 2026-05-06 21:47 | 22.91407 | 38.32866 | 25920 ft | 421 kts | 302° |
| 2026-05-06 21:48 | 22.93187 | 38.30337 | 26220 ft | 422 kts | 302° |
| 2026-05-06 21:48 | 22.94971 | 38.27796 | 26517 ft | 424 kts | 302° |
| 2026-05-06 21:48 | 22.96761 | 38.25247 | 26822 ft | 425 kts | 302° |
| 2026-05-06 21:48 | 22.98559 | 38.22688 | 27103 ft | 427 kts | 302° |
| 2026-05-06 21:49 | 23.00358 | 38.20126 | 27412 ft | 428 kts | 301° |
| 2026-05-06 21:49 | 23.02168 | 38.17550 | 27736 ft | 429 kts | 301° |
| 2026-05-06 21:49 | 23.03981 | 38.14968 | 28042 ft | 430 kts | 301° |
| 2026-05-06 21:49 | 23.05797 | 38.12380 | 28326 ft | 431 kts | 301° |
| 2026-05-06 21:50 | 23.07617 | 38.09781 | 28597 ft | 433 kts | 301° |
| 2026-05-06 21:50 | 23.09438 | 38.07172 | 28856 ft | 434 kts | 301° |
| 2026-05-06 21:50 | 23.11265 | 38.04553 | 29109 ft | 435 kts | 301° |
| 2026-05-06 21:50 | 23.13099 | 38.01929 | 29366 ft | 437 kts | 301° |
| 2026-05-06 21:51 | 23.14940 | 37.99297 | 29600 ft | 438 kts | 301° |
| 2026-05-06 21:51 | 23.16764 | 37.96693 | 29855 ft | 439 kts | 300° |
| 2026-05-06 21:51 | 23.18639 | 37.94013 | 30111 ft | 441 kts | 300° |
| 2026-05-06 21:51 | 23.20468 | 37.91395 | 30335 ft | 441 kts | 300° |
| 2026-05-06 21:52 | 23.22319 | 37.88743 | 30643 ft | 439 kts | 300° |
| 2026-05-06 21:52 | 23.24162 | 37.86102 | 30974 ft | 437 kts | 300° |
| 2026-05-06 21:52 | 23.25999 | 37.83471 | 31285 ft | 436 kts | 299° |
| 2026-05-06 21:52 | 23.27824 | 37.80852 | 31596 ft | 435 kts | 299° |
| 2026-05-06 21:53 | 23.29644 | 37.78234 | 31900 ft | 433 kts | 299° |
| 2026-05-06 21:53 | 23.31465 | 37.75615 | 32213 ft | 432 kts | 298° |
| 2026-05-06 21:53 | 23.33277 | 37.73013 | 32527 ft | 431 kts | 299° |
| 2026-05-06 21:53 | 23.35295 | 37.70561 | 32860 ft | 440 kts | 308° |
| 2026-05-06 21:54 | 23.37596 | 37.68342 | 33191 ft | 441 kts | 309° |
| 2026-05-06 21:54 | 23.39902 | 37.66143 | 33507 ft | 440 kts | 309° |
| 2026-05-06 21:54 | 23.42197 | 37.63953 | 33846 ft | 439 kts | 308° |
| 2026-05-06 21:54 | 23.44487 | 37.61766 | 33928 ft | 434 kts | 308° |
| 2026-05-06 21:55 | 23.48979 | 37.57467 | 33938 ft | 428 kts | 308° |
| 2026-05-06 21:55 | 23.53432 | 37.53176 | 33934 ft | 427 kts | 308° |
| 2026-05-06 21:56 | 23.57847 | 37.48917 | 33934 ft | 427 kts | 308° |
| 2026-05-06 21:56 | 23.62298 | 37.44636 | 33938 ft | 426 kts | 308° |
| 2026-05-06 21:57 | 23.66745 | 37.40358 | 33938 ft | 426 kts | 308° |
| 2026-05-06 21:57 | 23.71190 | 37.36079 | 33935 ft | 426 kts | 308° |
| 2026-05-06 21:58 | 23.75632 | 37.31801 | 33965 ft | 426 kts | 308° |
| 2026-05-06 21:58 | 23.80068 | 37.27514 | 33955 ft | 426 kts | 308° |
| 2026-05-06 21:59 | 23.84503 | 37.23227 | 33966 ft | 426 kts | 308° |
| 2026-05-06 21:59 | 23.88940 | 37.18930 | 33960 ft | 426 kts | 308° |
| 2026-05-06 22:00 | 23.93376 | 37.14632 | 33956 ft | 426 kts | 308° |
| 2026-05-06 22:00 | 23.97813 | 37.10336 | 33961 ft | 426 kts | 308° |
| 2026-05-06 22:01 | 24.02248 | 37.06027 | 33959 ft | 426 kts | 308° |
| 2026-05-06 22:01 | 24.06688 | 37.01721 | 33960 ft | 426 kts | 308° |
| 2026-05-06 22:02 | 24.11094 | 36.97438 | 33999 ft | 426 kts | 308° |
| 2026-05-06 22:02 | 24.15523 | 36.93125 | 33989 ft | 426 kts | 308° |
| 2026-05-06 22:03 | 24.19965 | 36.88812 | 33981 ft | 426 kts | 308° |
| 2026-05-06 22:03 | 24.24397 | 36.84498 | 33979 ft | 426 kts | 308° |
| 2026-05-06 22:04 | 24.28822 | 36.80174 | 33975 ft | 426 kts | 308° |
| 2026-05-06 22:04 | 24.33238 | 36.75849 | 33971 ft | 426 kts | 308° |
| 2026-05-06 22:05 | 24.37663 | 36.71525 | 33992 ft | 426 kts | 308° |
| 2026-05-06 22:05 | 24.42089 | 36.67206 | 33987 ft | 426 kts | 308° |
| 2026-05-06 22:06 | 24.46505 | 36.62880 | 34009 ft | 425 kts | 308° |
| 2026-05-06 22:06 | 24.50910 | 36.58553 | 33992 ft | 424 kts | 308° |
| 2026-05-06 22:07 | 24.55307 | 36.54237 | 33986 ft | 424 kts | 308° |
| 2026-05-06 22:07 | 24.59710 | 36.49916 | 34006 ft | 424 kts | 308° |
| 2026-05-06 22:08 | 24.64099 | 36.45593 | 33995 ft | 423 kts | 308° |
| 2026-05-06 22:08 | 24.68488 | 36.41274 | 34003 ft | 423 kts | 309° |
| 2026-05-06 22:09 | 24.72871 | 36.36958 | 33999 ft | 423 kts | 308° |
| 2026-05-06 22:09 | 24.77220 | 36.32665 | 33992 ft | 423 kts | 308° |
| 2026-05-06 22:10 | 24.81589 | 36.28346 | 34013 ft | 422 kts | 309° |
| 2026-05-06 22:10 | 24.85963 | 36.24027 | 34031 ft | 422 kts | 309° |
| 2026-05-06 22:11 | 24.90330 | 36.19715 | 34016 ft | 422 kts | 309° |
| 2026-05-06 22:11 | 24.94695 | 36.15390 | 34007 ft | 422 kts | 309° |
| 2026-05-06 22:12 | 24.99054 | 36.11067 | 34000 ft | 421 kts | 309° |
| 2026-05-06 22:12 | 25.03410 | 36.06741 | 33993 ft | 421 kts | 309° |
| 2026-05-06 22:13 | 25.07766 | 36.02416 | 33994 ft | 421 kts | 309° |
| 2026-05-06 22:13 | 25.12123 | 35.98089 | 33991 ft | 421 kts | 309° |
| 2026-05-06 22:14 | 25.16471 | 35.93762 | 34017 ft | 421 kts | 309° |
| 2026-05-06 22:14 | 25.20817 | 35.89423 | 33991 ft | 421 kts | 309° |
| 2026-05-06 22:15 | 25.25168 | 35.85084 | 33984 ft | 421 kts | 309° |
| 2026-05-06 22:15 | 25.29517 | 35.80745 | 33987 ft | 421 kts | 309° |
| 2026-05-06 22:16 | 25.33866 | 35.76406 | 33985 ft | 421 kts | 309° |
| 2026-05-06 22:16 | 25.38212 | 35.72054 | 33993 ft | 421 kts | 309° |
| 2026-05-06 22:17 | 25.42556 | 35.67702 | 33988 ft | 421 kts | 309° |
| 2026-05-06 22:17 | 25.46892 | 35.63351 | 33988 ft | 421 kts | 309° |
| 2026-05-06 22:18 | 25.51212 | 35.59013 | 34009 ft | 422 kts | 309° |
| 2026-05-06 22:18 | 25.55550 | 35.54649 | 34003 ft | 422 kts | 309° |
| 2026-05-06 22:19 | 25.59892 | 35.50277 | 34000 ft | 422 kts | 309° |
| 2026-05-06 22:19 | 25.64239 | 35.45906 | 34009 ft | 422 kts | 309° |
| 2026-05-06 22:20 | 25.68587 | 35.41533 | 34006 ft | 422 kts | 309° |
| 2026-05-06 22:20 | 25.72928 | 35.37156 | 34002 ft | 422 kts | 309° |
| 2026-05-06 22:21 | 25.77274 | 35.32775 | 34002 ft | 422 kts | 309° |
| 2026-05-06 22:21 | 25.81617 | 35.28386 | 34001 ft | 422 kts | 309° |
| 2026-05-06 22:22 | 25.85957 | 35.23993 | 34022 ft | 422 kts | 309° |
| 2026-05-06 22:22 | 25.90300 | 35.19596 | 34015 ft | 422 kts | 309° |
| 2026-05-06 22:23 | 25.94643 | 35.15194 | 33987 ft | 423 kts | 309° |
| 2026-05-06 22:23 | 25.96815 | 35.12986 | 33211 ft | 425 kts | 309° |
| 2026-05-06 22:23 | 25.98977 | 35.10787 | 32708 ft | 417 kts | 309° |
| 2026-05-06 22:24 | 26.01111 | 35.08622 | 32188 ft | 414 kts | 309° |
| 2026-05-06 22:24 | 26.03215 | 35.06450 | 31648 ft | 411 kts | 308° |
| 2026-05-06 22:24 | 26.05268 | 35.04246 | 31125 ft | 408 kts | 308° |
| 2026-05-06 22:24 | 26.07278 | 35.02035 | 30607 ft | 406 kts | 307° |
| 2026-05-06 22:25 | 26.09271 | 34.99821 | 30087 ft | 404 kts | 307° |
| 2026-05-06 22:25 | 26.11252 | 34.97622 | 29523 ft | 402 kts | 308° |
| 2026-05-06 22:25 | 26.13227 | 34.95443 | 29015 ft | 398 kts | 308° |
| 2026-05-06 22:25 | 26.15194 | 34.93284 | 28503 ft | 395 kts | 308° |
| 2026-05-06 22:26 | 26.17143 | 34.91152 | 28012 ft | 391 kts | 309° |
| 2026-05-06 22:26 | 26.19074 | 34.89043 | 27527 ft | 387 kts | 309° |
| 2026-05-06 22:26 | 26.20989 | 34.86949 | 27059 ft | 384 kts | 309° |
| 2026-05-06 22:26 | 26.22890 | 34.84871 | 26578 ft | 381 kts | 309° |
| 2026-05-06 22:27 | 26.24773 | 34.82811 | 26119 ft | 378 kts | 309° |
| 2026-05-06 22:27 | 26.26637 | 34.80766 | 25673 ft | 374 kts | 309° |
| 2026-05-06 22:27 | 26.28479 | 34.78741 | 25228 ft | 371 kts | 309° |
| 2026-05-06 22:27 | 26.30313 | 34.76727 | 24805 ft | 368 kts | 310° |
| 2026-05-06 22:28 | 26.32107 | 34.74758 | 24378 ft | 365 kts | 310° |
| 2026-05-06 22:28 | 26.33913 | 34.72775 | 23962 ft | 363 kts | 310° |
| 2026-05-06 22:28 | 26.35703 | 34.70805 | 23510 ft | 362 kts | 310° |
| 2026-05-06 22:28 | 26.37489 | 34.68841 | 23037 ft | 359 kts | 310° |
| 2026-05-06 22:29 | 26.39261 | 34.66896 | 22604 ft | 355 kts | 310° |
| 2026-05-06 22:29 | 26.41010 | 34.64973 | 22174 ft | 352 kts | 310° |
| 2026-05-06 22:29 | 26.42750 | 34.63060 | 21749 ft | 349 kts | 310° |
| 2026-05-06 22:29 | 26.44467 | 34.61168 | 21325 ft | 346 kts | 310° |
| 2026-05-06 22:30 | 26.46178 | 34.59282 | 20891 ft | 344 kts | 310° |
| 2026-05-06 22:30 | 26.47874 | 34.57410 | 20461 ft | 342 kts | 310° |
| 2026-05-06 22:30 | 26.49560 | 34.55548 | 20043 ft | 340 kts | 310° |
| 2026-05-06 22:30 | 26.51241 | 34.53693 | 19594 ft | 339 kts | 310° |
| 2026-05-06 22:31 | 26.52914 | 34.51849 | 19176 ft | 337 kts | 310° |
| 2026-05-06 22:31 | 26.54579 | 34.50013 | 18762 ft | 336 kts | 310° |
| 2026-05-06 22:31 | 26.56238 | 34.48180 | 18337 ft | 335 kts | 310° |
| 2026-05-06 22:31 | 26.57891 | 34.46353 | 17890 ft | 333 kts | 310° |
| 2026-05-06 22:32 | 26.59533 | 34.44535 | 17463 ft | 331 kts | 310° |
| 2026-05-06 22:32 | 26.61161 | 34.42732 | 17056 ft | 328 kts | 310° |
| 2026-05-06 22:32 | 26.62777 | 34.40945 | 16653 ft | 326 kts | 310° |
| 2026-05-06 22:32 | 26.64383 | 34.39170 | 16253 ft | 324 kts | 311° |
| 2026-05-06 22:33 | 26.65976 | 34.37405 | 15856 ft | 321 kts | 311° |
| 2026-05-06 22:33 | 26.67559 | 34.35647 | 15476 ft | 320 kts | 311° |
| 2026-05-06 22:33 | 26.69111 | 34.33922 | 15084 ft | 318 kts | 311° |
| 2026-05-06 22:33 | 26.70677 | 34.32183 | 14696 ft | 316 kts | 310° |
| 2026-05-06 22:34 | 26.72232 | 34.30456 | 14308 ft | 315 kts | 310° |
| 2026-05-06 22:34 | 26.73786 | 34.28733 | 13918 ft | 314 kts | 311° |
| 2026-05-06 22:34 | 26.75336 | 34.27013 | 13496 ft | 313 kts | 311° |
| 2026-05-06 22:34 | 26.76878 | 34.25303 | 13097 ft | 311 kts | 311° |
| 2026-05-06 22:35 | 26.78409 | 34.23606 | 12707 ft | 309 kts | 311° |
| 2026-05-06 22:35 | 26.79926 | 34.21919 | 12320 ft | 307 kts | 311° |
| 2026-05-06 22:35 | 26.80927 | 34.20804 | 12058 ft | 306 kts | 312° |
| 2026-05-06 22:35 | 26.82430 | 34.19131 | 11674 ft | 305 kts | 312° |
| 2026-05-06 22:36 | 26.83994 | 34.17529 | 11275 ft | 305 kts | 321° |
| 2026-05-06 22:36 | 26.85749 | 34.16191 | 10870 ft | 305 kts | 323° |
| 2026-05-06 22:36 | 26.87504 | 34.14870 | 10465 ft | 304 kts | 323° |
| 2026-05-06 22:36 | 26.89251 | 34.13556 | 10224 ft | 298 kts | 323° |
| 2026-05-06 22:37 | 26.90951 | 34.12277 | 9980 ft | 292 kts | 323° |
| 2026-05-06 22:37 | 26.92615 | 34.11024 | 9841 ft | 287 kts | 323° |
| 2026-05-06 22:37 | 26.94261 | 34.09753 | 9458 ft | 287 kts | 318° |
| 2026-05-06 22:37 | 26.95593 | 34.08135 | 9054 ft | 281 kts | 301° |
| 2026-05-06 22:38 | 26.96423 | 34.06175 | 8615 ft | 278 kts | 284° |
| 2026-05-06 22:38 | 26.96732 | 34.04064 | 8170 ft | 277 kts | 275° |
| 2026-05-06 22:38 | 26.96912 | 34.01912 | 7860 ft | 273 kts | 275° |
| 2026-05-06 22:38 | 26.97083 | 33.99826 | 7369 ft | 268 kts | 275° |
| 2026-05-06 22:39 | 26.97252 | 33.97743 | 6880 ft | 268 kts | 275° |
| 2026-05-06 22:39 | 26.97421 | 33.95677 | 6447 ft | 266 kts | 275° |
| 2026-05-06 22:39 | 26.97591 | 33.93605 | 5895 ft | 268 kts | 276° |
| 2026-05-06 22:39 | 26.97760 | 33.91549 | 5471 ft | 264 kts | 276° |
| 2026-05-06 22:40 | 26.97931 | 33.89489 | 4951 ft | 265 kts | 276° |
| 2026-05-06 22:40 | 26.98410 | 33.87513 | 4487 ft | 263 kts | 298° |
| 2026-05-06 22:40 | 26.99549 | 33.85935 | 4044 ft | 260 kts | 322° |
| 2026-05-06 22:40 | 27.01140 | 33.85027 | 3670 ft | 256 kts | 344° |
| 2026-05-06 22:41 | 27.04530 | 33.84031 | 2959 ft | 243 kts | 345° |
| 2026-05-06 22:41 | 27.06057 | 33.83581 | 2904 ft | 217 kts | 345° |
| 2026-05-06 22:41 | 27.07453 | 33.83169 | 2874 ft | 198 kts | 345° |
| 2026-05-06 22:42 | 27.08695 | 33.82811 | 2731 ft | 173 kts | 346° |
| 2026-05-06 22:42 | 27.09804 | 33.82524 | 2464 ft | 153 kts | 344° |
| 2026-05-06 22:42 | 27.10808 | 33.82243 | 2122 ft | 145 kts | 343° |
| 2026-05-06 22:42 | 27.11776 | 33.81936 | 1644 ft | 145 kts | 339° |
| 2026-05-06 22:43 | 27.12766 | 33.81619 | 1102 ft | 149 kts | 340° |
| 2026-05-06 22:43 | 27.13744 | 33.81346 | 747 ft | 140 kts | 338° |
| 2026-05-06 22:43 | 27.14677 | 33.81047 | 389 ft | 138 kts | 340° |
| 2026-05-06 22:43 | 27.15600 | 33.80775 | 158 ft | 136 kts | 340° |
| 2026-05-06 22:44 | 27.16506 | 33.80498 | 34 ft | 135 kts | 342° |
| 2026-05-06 22:44 | 27.17328 | 33.80248 | 33 ft | 103 kts | 346° |
| 2026-05-06 22:44 | 27.17858 | 33.80096 | 35 ft | 56 kts | 346° |
| 2026-05-06 22:44 | 27.18213 | 33.79990 | 28 ft | 49 kts | 345° |
| 2026-05-06 22:45 | 27.18402 | 33.79940 | 30 ft | 17 kts | 356° |
| 2026-05-06 22:45 | 27.18465 | 33.80023 | 30 ft | 9 kts | 72° |
| 2026-05-06 22:45 | 27.18466 | 33.80026 | 30 ft | 0 kts | 73° |
| 2026-05-06 22:45 | 27.18466 | 33.80027 | 30 ft | 0 kts | 73° |
| 2026-05-06 22:46 | 27.18467 | 33.80028 | 30 ft | 1 kts | 73° |
| 2026-05-06 22:46 | 27.18468 | 33.80051 | 29 ft | 5 kts | 92° |
| 2026-05-06 22:46 | 27.18446 | 33.80092 | 32 ft | 8 kts | 139° |
| 2026-05-06 22:47 | 27.18393 | 33.80116 | 33 ft | 9 kts | 166° |
| 2026-05-06 22:47 | 27.18326 | 33.80134 | 34 ft | 11 kts | 166° |
| 2026-05-06 22:47 | 27.18245 | 33.80156 | 32 ft | 13 kts | 166° |
| 2026-05-06 22:47 | 27.18179 | 33.80185 | 33 ft | 7 kts | 140° |
| 2026-05-06 22:48 | 27.18172 | 33.80224 | 35 ft | 3 kts | 83° |
| 2026-05-06 22:48 | 27.18177 | 33.80243 | 37 ft | 3 kts | 72° |
| 2026-05-06 22:48 | 27.18184 | 33.80267 | 33 ft | 4 kts | 72° |
| 2026-05-06 22:48 | 27.18197 | 33.80316 | 32 ft | 9 kts | 73° |
| 2026-05-06 22:49 | 27.18196 | 33.80401 | 36 ft | 13 kts | 120° |
| 2026-05-06 22:49 | 27.18118 | 33.80443 | 33 ft | 12 kts | 164° |
| 2026-05-06 22:49 | 27.18036 | 33.80468 | 36 ft | 12 kts | 165° |
| 2026-05-06 22:49 | 27.17987 | 33.80518 | 34 ft | 10 kts | 86° |
| 2026-05-06 22:50 | 27.18008 | 33.80572 | 34 ft | 5 kts | 71° |
| 2026-05-06 22:50 | 27.18010 | 33.80582 | 32 ft | 0 kts | 73° |